Time;durP1;ratioP1;P1;durP2;ratioP2;P2;SDS_P1;SDS_P2;PMS_P1;PMS_P2;Temp;Humidity;BMP_temperature;BMP_pressure;BME280_temperature;BME280_humidity;BME280_pressure;Samples;Min_cycle;Max_cycle;Signal;HPM_P1;HPM_P2
2022/05/11 00:01:32;;;;;;;3.22;2.75;;;;;;;12.54;38.46;99402.80;1687196;85;21270;-67
2022/05/11 00:03:59;;;;;;;4.67;3.05;;;;;;;12.54;38.41;99402.80;1687169;85;20988;-67
2022/05/11 00:06:26;;;;;;;3.20;2.90;;;;;;;12.55;38.36;99400.42;1687033;85;20965;-67
2022/05/11 00:08:54;;;;;;;4.47;3.20;;;;;;;12.53;38.77;99393.95;1667877;84;21030;-67
2022/05/11 00:11:23;;;;;;;5.17;3.35;;;;;;;12.53;38.73;99390.45;1664614;85;20914;-67
2022/05/11 00:13:49;;;;;;;6.03;3.12;;;;;;;12.51;38.89;99385.31;1665443;86;21058;-67
2022/05/11 00:16:16;;;;;;;6.65;3.37;;;;;;;12.50;39.52;99386.81;1665209;86;20894;-67
2022/05/11 00:18:42;;;;;;;3.40;3.10;;;;;;;12.46;39.57;99385.04;1665608;86;21065;-67
2022/05/11 00:21:09;;;;;;;4.35;2.87;;;;;;;12.45;39.55;99385.20;1665558;86;20941;-67
2022/05/11 00:23:35;;;;;;;4.25;3.20;;;;;;;12.45;39.47;99385.20;1665401;86;20938;-67
2022/05/11 00:26:02;;;;;;;3.70;2.37;;;;;;;12.42;39.56;99382.41;1665247;86;21158;-67
2022/05/11 00:28:29;;;;;;;5.72;3.10;;;;;;;12.42;40.07;99376.23;1664717;84;20970;-67
2022/05/11 00:30:56;;;;;;;3.47;2.85;;;;;;;12.38;40.45;99371.27;1665950;86;20962;-68
2022/05/11 00:33:22;;;;;;;3.35;2.87;;;;;;;12.35;41.07;99368.98;1670754;85;21011;-68
2022/05/11 00:35:50;;;;;;;4.10;3.37;;;;;;;12.32;41.21;99373.35;1670858;85;21004;-66
2022/05/11 00:38:19;;;;;;;5.42;3.37;;;;;;;12.30;41.91;99368.71;1670195;86;21109;-68
2022/05/11 00:40:52;;;;;;;6.80;2.87;;;;;;;12.26;42.71;99367.41;1670632;86;20904;-67
2022/05/11 00:43:34;;;;;;;4.42;3.20;;;;;;;12.18;43.25;99368.83;1670109;85;21189;-67
2022/05/11 00:46:27;;;;;;;6.50;3.27;;;;;;;12.09;43.76;99362.44;1670459;86;20987;-67
2022/05/11 00:51:49;;;;;;;5.37;2.87;;;;;;;11.87;45.20;99365.98;1665253;86;21305;-67
2022/05/11 00:54:17;;;;;;;4.78;3.27;;;;;;;11.73;45.48;99364.96;1665108;86;20913;-67
2022/05/11 00:56:51;;;;;;;5.20;3.20;;;;;;;11.59;45.93;99367.87;1665510;84;20950;-67
2022/05/11 00:59:23;;;;;;;5.03;3.20;;;;;;;11.48;46.40;99366.13;1643572;86;20992;-71
2022/05/11 01:01:49;;;;;;;5.25;4.17;;;;;;;11.36;46.69;99368.39;1643554;86;21030;-67
2022/05/11 01:04:19;;;;;;;6.33;4.00;;;;;;;11.25;46.95;99365.30;1643493;87;21166;-68
2022/05/11 01:06:45;;;;;;;8.83;4.60;;;;;;;11.16;46.95;99368.52;1628532;86;20889;-67
2022/05/11 01:09:12;;;;;;;6.55;4.20;;;;;;;11.08;47.25;99368.06;1670690;83;21454;-68
2022/05/11 01:11:45;;;;;;;4.95;4.03;;;;;;;11.02;47.64;99371.45;1670701;86;20928;-67
2022/05/11 01:14:14;;;;;;;4.67;4.17;;;;;;;10.99;47.87;99368.30;1670798;86;20948;-71
2022/05/11 01:16:41;;;;;;;11.55;5.83;;;;;;;10.97;48.00;99366.32;1670673;85;21157;-69
2022/05/11 01:19:11;;;;;;;11.43;4.70;;;;;;;10.95;48.00;99369.67;1667862;86;21023;-67
2022/05/11 01:21:49;;;;;;;11.43;4.50;;;;;;;10.93;48.10;99363.66;1667789;86;20937;-66
2022/05/11 01:24:41;;;;;;;3.70;3.30;;;;;;;10.91;48.21;99359.86;1664337;86;21452;-69
2022/05/11 01:27:30;;;;;;;4.72;4.22;;;;;;;10.91;48.21;99363.02;1665470;86;20995;-69
2022/05/11 01:30:01;;;;;;;7.40;4.30;;;;;;;10.90;48.04;99362.19;1643791;87;21680;-67
2022/05/11 01:32:28;;;;;;;8.55;4.12;;;;;;;10.88;47.99;99362.87;1643393;86;20971;-71
2022/05/11 01:35:12;;;;;;;5.47;4.03;;;;;;;10.88;47.97;99359.38;1643549;86;21597;-69
2022/05/11 01:37:44;;;;;;;4.95;3.70;;;;;;;10.87;47.98;99360.39;1654215;86;21022;-70
2022/05/11 01:40:11;;;;;;;4.60;3.47;;;;;;;10.85;47.94;99361.05;1670674;86;20984;-68
2022/05/11 01:42:38;;;;;;;6.15;3.65;;;;;;;10.80;48.14;99366.91;1670875;86;21782;-68
2022/05/11 01:45:06;;;;;;;5.60;3.37;;;;;;;10.75;48.37;99361.27;1670598;86;20960;-68
2022/05/11 01:47:33;;;;;;;4.25;2.95;;;;;;;10.70;47.98;99358.80;1670066;85;20998;-68
2022/05/11 01:49:59;;;;;;;7.45;3.17;;;;;;;10.67;47.59;99357.32;1670855;86;20995;-71
2022/05/11 01:52:26;;;;;;;6.53;3.37;;;;;;;10.68;47.35;99359.48;1670801;86;21506;-70
2022/05/11 01:54:53;;;;;;;4.53;3.87;;;;;;;10.69;47.11;99354.50;1670753;86;21144;-72
2022/05/11 01:57:19;;;;;;;5.53;3.67;;;;;;;10.68;47.49;99357.66;1670101;86;20912;-70
2022/05/11 01:59:47;;;;;;;5.87;3.85;;;;;;;10.65;47.98;99355.34;1670717;86;20967;-70
2022/05/11 02:02:13;;;;;;;5.97;3.40;;;;;;;10.60;48.45;99350.21;1670729;85;20972;-69
2022/05/11 02:10:10;;;;;;;3.83;2.60;;;;;;;10.42;48.07;99353.12;1679308;85;20995;-68
2022/05/11 02:12:38;;;;;;;2.60;2.30;;;;;;;10.37;47.47;99351.48;1679345;85;21535;-68
2022/05/11 02:15:07;;;;;;;3.37;2.40;;;;;;;10.34;46.86;99347.83;1679498;85;21028;-68
2022/05/11 02:17:33;;;;;;;2.62;2.40;;;;;;;10.34;46.61;99348.66;1678887;85;20905;-68
2022/05/11 02:20:00;;;;;;;4.62;2.85;;;;;;;10.33;46.71;99344.33;1679283;85;22165;-69
2022/05/11 02:22:27;;;;;;;5.50;2.65;;;;;;;10.34;46.94;99342.02;1679220;85;20952;-66
2022/05/11 02:24:54;;;;;;;3.05;2.30;;;;;;;10.37;47.02;99347.00;1679227;85;21009;-69
2022/05/11 02:27:21;;;;;;;3.45;2.47;;;;;;;10.40;47.03;99342.64;1676628;85;21521;-68
2022/05/11 02:29:47;;;;;;;4.75;2.60;;;;;;;10.44;46.79;99335.16;1673666;85;21018;-69
2022/05/11 02:32:14;;;;;;;3.17;2.10;;;;;;;10.50;46.36;99343.28;1673668;85;21114;-67
2022/05/11 02:37:25;;;;;;;4.62;2.80;;;;;;;10.57;46.26;99350.06;1664913;85;21407;-69
2022/05/11 02:39:51;;;;;;;2.83;2.47;;;;;;;10.58;46.85;99348.23;1679148;85;20968;-67
2022/05/11 02:42:18;;;;;;;3.40;2.65;;;;;;;10.57;47.15;99350.06;1679303;85;20988;-70
2022/05/11 02:44:45;;;;;;;4.10;2.92;;;;;;;10.54;46.98;99351.23;1679135;85;21127;-68
2022/05/11 02:47:12;;;;;;;5.15;2.90;;;;;;;10.55;46.95;99348.08;1678561;85;21008;-70
2022/05/11 02:49:39;;;;;;;4.72;2.77;;;;;;;10.59;47.02;99345.39;1679151;85;21000;-67
2022/05/11 02:52:06;;;;;;;3.75;2.72;;;;;;;10.65;47.07;99350.52;1679655;85;21169;-67
2022/05/11 02:54:32;;;;;;;7.33;4.00;;;;;;;10.70;46.78;99346.34;1679336;85;20909;-67
2022/05/11 02:56:59;;;;;;;5.30;3.42;;;;;;;10.77;47.24;99341.97;1676646;85;22058;-67
2022/05/11 02:59:26;;;;;;;4.95;3.95;;;;;;;10.86;48.56;99340.93;1673594;85;20939;-67
2022/05/11 03:01:53;;;;;;;8.00;3.77;;;;;;;10.92;49.22;99336.74;1673750;85;20872;-67
2022/05/11 03:04:19;;;;;;;6.17;4.40;;;;;;;10.95;49.51;99341.19;1673846;85;21054;-68
2022/05/11 03:06:49;;;;;;;8.63;4.85;;;;;;;11.00;49.63;99338.03;1674053;85;20967;-68
2022/05/11 03:09:16;;;;;;;8.13;4.33;;;;;;;11.04;49.75;99336.16;1673659;85;21194;-67
2022/05/11 03:11:44;;;;;;;8.20;4.80;;;;;;;11.12;49.85;99334.77;1673795;85;21478;-67
2022/05/11 03:14:11;;;;;;;7.72;3.62;;;;;;;11.18;50.00;99334.05;1673762;85;21079;-67
2022/05/11 03:16:38;;;;;;;5.80;3.70;;;;;;;11.28;49.80;99327.17;1674206;85;20990;-67
2022/05/11 03:19:05;;;;;;;8.00;3.65;;;;;;;11.42;49.33;99326.91;1679590;85;20956;-67
2022/05/11 03:21:33;;;;;;;6.20;3.90;;;;;;;11.60;48.85;99324.22;1679422;85;21261;-68
2022/05/11 03:24:00;;;;;;;3.62;3.00;;;;;;;11.84;48.43;99323.69;1676028;85;21547;-72
2022/05/11 03:26:26;;;;;;;5.17;2.87;;;;;;;12.11;47.63;99319.08;1674043;85;21003;-68
2022/05/11 03:28:54;;;;;;;4.35;2.83;;;;;;;12.43;46.16;99317.38;1673788;85;20997;-69
2022/05/11 03:31:21;;;;;;;7.30;2.25;;;;;;;12.78;44.91;99319.23;1673777;85;21011;-67
2022/05/11 03:36:33;;;;;;;3.55;2.25;;;;;;;13.55;42.95;99322.92;1673764;85;20868;-67
2022/05/11 03:38:59;;;;;;;3.33;2.52;;;;;;;14.02;41.96;99324.09;1674022;85;21030;-68
2022/05/11 03:41:26;;;;;;;3.62;2.30;;;;;;;14.44;40.90;99329.81;1673612;85;21062;-67
2022/05/11 03:43:52;;;;;;;4.62;2.33;;;;;;;14.86;39.89;99332.23;1675358;85;20896;-68
2022/05/11 03:46:18;;;;;;;5.22;2.30;;;;;;;15.30;38.73;99329.06;1679341;85;21163;-67
2022/05/11 03:48:46;;;;;;;5.83;2.30;;;;;;;15.72;37.49;99331.91;1678841;85;21411;-68
2022/05/11 03:51:13;;;;;;;4.00;2.15;;;;;;;16.14;36.47;99328.75;1679453;85;20920;-67
2022/05/11 03:53:39;;;;;;;6.42;4.25;;;;;;;16.55;35.55;99326.63;1678173;85;21486;-69
2022/05/11 03:56:06;;;;;;;11.88;5.05;;;;;;;16.97;37.15;99329.75;1673760;85;20936;-69
2022/05/11 03:58:33;;;;;;;8.18;4.60;;;;;;;17.36;38.75;99322.80;1674197;85;21165;-67
2022/05/11 04:01:00;;;;;;;12.30;5.03;;;;;;;17.70;38.46;99325.56;1677043;85;20992;-68
2022/05/11 04:03:27;;;;;;;8.95;4.28;;;;;;;17.96;38.29;99322.64;1678626;85;21032;-72
2022/05/11 04:05:53;;;;;;;5.58;3.47;;;;;;;18.16;38.12;99317.88;1673832;85;20915;-68
2022/05/11 04:08:20;;;;;;;7.40;4.08;;;;;;;18.36;37.56;99317.66;1674431;85;21560;-68
2022/05/11 04:10:47;;;;;;;5.70;3.37;;;;;;;18.61;37.45;99314.93;1681571;85;21151;-68
2022/05/11 04:13:15;;;;;;;15.83;4.83;;;;;;;18.84;36.91;99313.70;1681269;85;20903;-68
2022/05/11 04:15:41;;;;;;;11.08;3.60;;;;;;;19.11;36.70;99317.67;1687026;85;21056;-70
2022/05/11 04:18:08;;;;;;;6.75;3.27;;;;;;;19.39;36.00;99313.06;1687058;85;21027;-67
2022/05/11 04:20:34;;;;;;;7.40;2.98;;;;;;;19.66;34.59;99313.75;1686623;84;20940;-71
2022/05/11 04:23:01;;;;;;;6.45;3.70;;;;;;;20.00;33.84;99315.34;1687026;85;21147;-71
2022/05/11 04:25:27;;;;;;;5.67;3.35;;;;;;;20.38;33.29;99304.09;1681768;85;21562;-70
2022/05/11 04:27:55;;;;;;;9.00;3.30;;;;;;;20.76;32.36;99303.82;1681389;85;21038;-68
2022/05/11 04:30:25;;;;;;;7.25;3.35;;;;;;;21.11;31.52;99302.90;1681634;85;21023;-70
2022/05/11 04:32:50;;;;;;;7.50;3.15;;;;;;;21.47;30.86;99304.64;1681056;85;21056;-68
2022/05/11 04:35:17;;;;;;;9.50;3.22;;;;;;;21.84;30.02;99307.69;1685909;85;21269;-70
2022/05/11 04:37:44;;;;;;;11.28;3.83;;;;;;;22.20;29.33;99308.23;1686962;85;20904;-69
2022/05/11 04:40:15;;;;;;;6.85;3.47;;;;;;;22.55;29.69;99310.09;1686966;85;21490;-67
2022/05/11 04:42:43;;;;;;;14.85;3.80;;;;;;;22.99;29.50;99314.45;1686379;85;21506;-67
2022/05/11 04:45:10;;;;;;;12.23;3.40;;;;;;;23.38;27.98;99310.27;1682558;85;20955;-68
2022/05/11 04:47:38;;;;;;;4.67;2.12;;;;;;;23.64;27.92;99317.03;1681305;85;21309;-69
2022/05/11 04:50:07;;;;;;;3.83;2.70;;;;;;;23.86;27.05;99319.09;1681307;85;20931;-70
2022/05/11 04:52:33;;;;;;;5.75;2.98;;;;;;;24.09;26.53;99317.92;1681717;85;20915;-70
2022/05/11 04:55:00;;;;;;;7.80;2.83;;;;;;;24.30;25.53;99321.05;1681887;85;21057;-72
2022/05/11 04:57:26;;;;;;;5.37;2.75;;;;;;;24.57;25.52;99314.13;1681378;85;21025;-72
2022/05/11 04:59:53;;;;;;;5.60;2.08;;;;;;;24.90;24.92;99317.00;1681324;85;21165;-68
2022/05/11 05:02:23;;;;;;;3.50;1.87;;;;;;;25.07;24.09;99313.54;1686522;83;20921;-72
2022/05/11 05:04:49;;;;;;;3.35;1.50;;;;;;;25.29;22.80;99313.33;1683083;85;20927;-71
2022/05/11 05:07:17;;;;;;;3.10;1.65;;;;;;;25.47;22.21;99319.08;1681259;85;20912;-69
2022/05/11 05:09:44;;;;;;;4.05;1.62;;;;;;;25.66;21.40;99313.38;1677203;85;21430;-69
2022/05/11 05:12:11;;;;;;;2.20;2.00;;;;;;;25.78;21.17;99320.73;1673886;85;21220;-71
2022/05/11 05:14:38;;;;;;;5.12;1.67;;;;;;;25.76;22.06;99319.36;1674105;85;21055;-69
2022/05/11 05:17:08;;;;;;;3.37;2.10;;;;;;;25.59;22.54;99314.74;1673783;85;20992;-69
2022/05/11 05:19:40;;;;;;;5.58;2.12;;;;;;;25.44;22.94;99314.70;1677825;85;20985;-68
2022/05/11 05:22:06;;;;;;;3.70;2.40;;;;;;;25.33;22.73;99313.87;1679322;85;21430;-68
2022/05/11 05:24:33;;;;;;;5.47;2.90;;;;;;;25.10;22.87;99317.09;1678917;85;21157;-67
2022/05/11 05:27:00;;;;;;;5.22;2.00;;;;;;;24.95;22.95;99317.84;1679282;85;21031;-66
2022/05/11 05:32:13;;;;;;;2.33;1.67;;;;;;;25.13;22.76;99312.48;1678834;85;21107;-66
2022/05/11 05:34:39;;;;;;;4.05;1.92;;;;;;;25.18;22.03;99307.58;1678098;85;21077;-67
2022/05/11 05:37:06;;;;;;;4.25;2.10;;;;;;;25.18;21.62;99308.41;1678789;85;21163;-67
2022/05/11 05:39:32;;;;;;;4.97;2.20;;;;;;;25.23;21.86;99307.05;1675370;85;21086;-68
2022/05/11 05:42:00;;;;;;;4.45;2.60;;;;;;;25.45;21.33;99304.06;1673155;85;21019;-67
2022/05/11 05:44:31;;;;;;;3.55;2.33;;;;;;;25.62;21.18;99300.05;1673074;85;21548;-70
2022/05/11 05:46:54;;;;;;;5.45;2.47;;;;;;;25.85;21.09;99299.20;1681598;83;21077;-69
2022/05/11 05:49:21;;;;;;;5.00;3.50;;;;;;;26.16;20.72;99303.02;1688969;84;21153;-68
2022/05/11 05:51:47;;;;;;;7.62;3.85;;;;;;;26.56;19.94;99295.81;1707090;84;21059;-68
2022/05/11 05:54:14;;;;;;;3.50;3.00;;;;;;;26.98;19.64;99304.40;1707194;84;21008;-70
2022/05/11 05:56:40;;;;;;;6.75;3.72;;;;;;;27.33;19.00;99302.80;1682174;84;21077;-66
2022/05/11 05:59:10;;;;;;;4.55;3.05;;;;;;;27.55;19.02;99293.67;1681127;85;21074;-69
2022/05/11 06:01:36;;;;;;;3.60;2.40;;;;;;;27.83;18.76;99290.70;1681446;84;21517;-68
2022/05/11 06:04:05;;;;;;;4.33;2.60;;;;;;;28.23;18.84;99292.26;1680577;84;21004;-66
2022/05/11 06:06:32;;;;;;;2.30;2.08;;;;;;;28.60;18.73;99290.20;1701862;84;20988;-67
2022/05/11 06:08:58;;;;;;;3.47;1.75;;;;;;;29.02;17.98;99287.46;1694862;84;21091;-65
2022/05/11 06:11:25;;;;;;;2.12;1.92;;;;;;;29.21;17.34;99285.59;1683020;85;21073;-67
2022/05/11 06:13:51;;;;;;;7.92;1.92;;;;;;;29.33;17.46;99285.94;1714954;83;21160;-67
2022/05/11 06:16:18;;;;;;;3.37;2.08;;;;;;;29.58;17.48;99292.14;1714968;83;21015;-64
2022/05/11 06:18:45;;;;;;;3.87;1.85;;;;;;;29.65;17.01;99287.08;1715041;83;20952;-67
2022/05/11 06:21:13;;;;;;;5.25;2.37;;;;;;;29.70;17.04;99285.08;1715070;83;21028;-69
2022/05/11 06:23:40;;;;;;;4.50;1.82;;;;;;;29.78;16.83;99293.16;1715037;83;21556;-69
2022/05/11 06:26:08;;;;;;;3.00;1.90;;;;;;;29.73;16.95;99298.73;1715193;83;21163;-68
2022/05/11 06:28:37;;;;;;;4.00;1.45;;;;;;;29.80;16.54;99297.27;1694600;83;20881;-71
2022/05/11 06:31:03;;;;;;;4.35;1.67;;;;;;;29.91;16.34;99303.39;1715080;83;21498;-67
2022/05/11 06:33:35;;;;;;;5.45;1.90;;;;;;;30.12;16.30;99300.55;1703054;83;21034;-67
2022/05/11 06:36:01;;;;;;;5.05;2.02;;;;;;;30.43;16.50;99303.55;1687753;83;20955;-68
2022/05/11 06:38:27;;;;;;;5.60;1.77;;;;;;;30.87;16.54;99306.48;1686186;85;22052;-66
2022/05/11 06:40:54;;;;;;;4.37;1.80;;;;;;;31.27;16.13;99306.74;1686669;85;21023;-69
2022/05/11 06:43:21;;;;;;;3.65;1.85;;;;;;;31.61;16.14;99298.81;1686480;85;20956;-68
2022/05/11 06:45:47;;;;;;;3.90;1.67;;;;;;;32.12;15.95;99300.55;1685773;85;21514;-68
2022/05/11 06:48:14;;;;;;;3.72;1.85;;;;;;;32.55;15.10;99302.16;1680979;85;21088;-70
2022/05/11 06:50:42;;;;;;;8.15;2.27;;;;;;;32.80;14.69;99300.63;1682725;85;21270;-68
2022/05/11 06:53:11;;;;;;;5.75;1.67;;;;;;;33.16;14.74;99297.63;1706657;83;21617;-68
2022/05/11 07:01:13;;;;;;;3.13;1.40;;;;;;;34.49;13.35;99295.11;1686224;85;21035;-69
2022/05/11 07:03:39;;;;;;;4.50;1.72;;;;;;;34.92;12.95;99302.61;1686770;85;21102;-66
2022/05/11 07:06:06;;;;;;;2.08;1.52;;;;;;;35.23;12.97;99295.34;1686520;85;21032;-69
2022/05/11 07:08:38;;;;;;;4.60;1.60;;;;;;;35.61;13.05;99300.77;1685240;85;21031;-69
2022/05/11 07:13:53;;;;;;;2.67;1.57;;;;;;;36.24;12.15;99294.73;1687700;83;20936;-70
2022/05/11 07:16:21;;;;;;;3.87;1.80;;;;;;;36.38;11.85;99291.08;1698301;83;21173;-69
2022/05/11 07:18:48;;;;;;;3.33;1.47;;;;;;;36.39;11.92;99295.48;1700656;83;20957;-68
2022/05/11 07:21:14;;;;;;;2.52;1.30;;;;;;;36.47;11.91;99294.56;1689388;83;21032;-69
2022/05/11 07:23:42;;;;;;;0.88;0.88;;;;;;;36.63;11.01;99291.13;1688338;84;20990;-68
2022/05/11 07:26:09;;;;;;;2.55;1.40;;;;;;;36.71;10.17;99289.60;1688352;85;20959;-71
2022/05/11 07:28:36;;;;;;;2.95;1.40;;;;;;;36.79;10.28;99290.06;1688364;85;21691;-66
2022/05/11 07:31:03;;;;;;;2.40;1.30;;;;;;;36.94;10.45;99291.33;1680600;85;20943;-66
2022/05/11 07:33:31;;;;;;;1.75;1.25;;;;;;;37.18;10.16;99291.90;1678571;85;21066;-69
2022/05/11 07:35:58;;;;;;;2.42;1.10;;;;;;;37.36;11.27;99287.11;1687012;85;21457;-68
2022/05/11 07:38:24;;;;;;;5.15;1.50;;;;;;;37.41;10.22;99279.15;1683956;85;20908;-72
2022/05/11 07:40:50;;;;;;;1.67;1.32;;;;;;;37.49;10.21;99274.81;1686890;84;21147;-70
2022/05/11 07:43:17;;;;;;;4.78;1.50;;;;;;;37.51;10.17;99272.52;1687137;85;21466;-70
2022/05/11 07:45:44;;;;;;;3.55;1.77;;;;;;;37.48;9.77;99264.08;1686764;85;21553;-68
2022/05/11 07:48:10;;;;;;;4.10;1.70;;;;;;;37.55;10.20;99255.95;1686971;85;20999;-68
2022/05/11 07:50:37;;;;;;;1.87;1.35;;;;;;;37.59;10.37;99254.91;1687084;85;21519;-70
2022/05/11 07:53:04;;;;;;;1.95;1.27;;;;;;;37.58;10.54;99248.31;1687144;85;21153;-69
2022/05/11 07:55:33;;;;;;;2.72;1.30;;;;;;;37.86;10.73;99243.56;1686951;85;20944;-71
2022/05/11 08:00:44;;;;;;;3.83;1.40;;;;;;;38.30;10.03;99243.75;1686899;85;21997;-69
2022/05/11 08:03:11;;;;;;;3.72;1.10;;;;;;;38.28;9.79;99245.24;1687121;85;21022;-69
2022/05/11 08:05:38;;;;;;;1.92;1.35;;;;;;;38.09;9.64;99238.23;1686960;85;21174;-70
2022/05/11 08:08:07;;;;;;;2.42;1.35;;;;;;;38.02;9.86;99233.28;1687206;85;21466;-68
2022/05/11 08:10:38;;;;;;;3.25;1.50;;;;;;;38.15;9.75;99234.00;1683604;84;20956;-69
2022/05/11 08:13:07;;;;;;;4.22;1.15;;;;;;;38.18;9.67;99229.13;1679297;85;21072;-68
2022/05/11 08:15:38;;;;;;;4.00;1.52;;;;;;;38.31;10.08;99227.89;1679459;85;20965;-69
2022/05/11 08:18:06;;;;;;;3.33;1.80;;;;;;;38.64;9.93;99235.84;1679439;85;21235;-70
2022/05/11 08:20:38;;;;;;;3.20;1.37;;;;;;;39.05;9.61;99228.27;1679681;85;20909;-68
2022/05/11 08:23:06;;;;;;;1.62;1.20;;;;;;;39.34;9.37;99228.30;1679421;85;20874;-69
2022/05/11 08:25:35;;;;;;;3.85;1.05;;;;;;;39.57;9.02;99219.99;1679350;85;21065;-71
2022/05/11 08:28:02;;;;;;;1.60;1.12;;;;;;;39.63;8.45;99225.52;1679388;85;21594;-71
2022/05/11 08:33:27;;;;;;;3.22;1.02;;;;;;;39.57;8.43;99224.98;1679385;85;20893;-68
2022/05/11 08:36:06;;;;;;;1.42;1.05;;;;;;;39.78;8.13;99225.41;1679535;85;20925;-69
2022/05/11 08:38:39;;;;;;;1.57;1.17;;;;;;;39.96;7.78;99220.16;1679777;85;20984;-70
2022/05/11 08:41:34;;;;;;;4.12;1.15;;;;;;;40.12;7.58;99225.63;1679401;85;20969;-71
2022/05/11 08:44:10;;;;;;;1.22;1.15;;;;;;;39.99;7.65;99221.63;1679260;85;21234;-72
2022/05/11 08:47:03;;;;;;;8.08;1.75;;;;;;;40.31;7.51;99218.60;1679263;85;20929;-69
2022/05/11 08:50:09;;;;;;;2.15;1.20;;;;;;;40.37;7.40;99222.08;1679352;85;21004;-72
2022/05/11 08:52:54;;;;;;;5.47;1.45;;;;;;;40.52;7.28;99218.36;1679332;85;20921;-70
2022/05/11 08:55:47;;;;;;;2.58;1.10;;;;;;;40.76;7.14;99205.96;1679352;85;20993;-69
2022/05/11 08:58:31;;;;;;;3.37;1.52;;;;;;;40.77;7.01;99203.98;1659706;85;21339;-71
2022/05/11 09:00:57;;;;;;;2.33;1.30;;;;;;;40.48;7.11;99206.95;1679223;85;21608;-69
2022/05/11 09:03:41;;;;;;;5.17;1.25;;;;;;;40.70;7.26;99201.11;1679752;85;20869;-67
2022/05/11 09:06:24;;;;;;;2.12;1.12;;;;;;;41.08;7.09;99197.47;1679404;85;20952;-69
2022/05/11 09:08:52;;;;;;;1.70;1.10;;;;;;;41.46;6.60;99184.40;1679349;85;20997;-72
2022/05/11 09:11:29;;;;;;;4.28;1.50;;;;;;;41.40;6.56;99190.10;1679289;84;21155;-71
2022/05/11 09:13:58;;;;;;;1.52;0.93;;;;;;;41.62;6.56;99182.95;1679346;85;21023;-71
2022/05/11 09:16:38;;;;;;;4.33;1.32;;;;;;;41.98;6.19;99183.34;1679398;85;20949;-68
2022/05/11 09:19:25;;;;;;;5.37;1.25;;;;;;;42.16;6.16;99182.30;1679386;85;21023;-69
2022/05/11 09:21:56;;;;;;;3.65;1.25;;;;;;;42.27;5.99;99179.00;1679334;85;21008;-70
2022/05/11 09:24:31;;;;;;;2.58;1.20;;;;;;;42.24;5.75;99175.58;1679425;85;21253;-69
2022/05/11 09:27:06;;;;;;;2.65;1.30;;;;;;;41.96;5.95;99166.14;1679318;85;21004;-71
2022/05/11 09:29:42;;;;;;;3.58;1.30;;;;;;;41.91;6.19;99167.30;1679121;85;21490;-70
2022/05/11 09:32:37;;;;;;;1.90;1.20;;;;;;;42.16;5.94;99174.53;1679323;85;21028;-69
2022/05/11 09:35:36;;;;;;;2.58;1.17;;;;;;;42.22;6.02;99169.58;1679494;85;20964;-71
2022/05/11 09:38:07;;;;;;;4.17;1.27;;;;;;;42.37;5.90;99167.09;1679361;85;22053;-69
2022/05/11 09:41:01;;;;;;;1.62;1.00;;;;;;;42.57;5.86;99160.67;1679242;85;20952;-71
2022/05/11 09:43:44;;;;;;;3.10;1.02;;;;;;;42.63;5.67;99165.30;1678518;85;21027;-70
2022/05/11 09:46:23;;;;;;;3.70;1.27;;;;;;;42.11;5.76;99167.88;1679398;85;20956;-70
2022/05/11 09:49:07;;;;;;;2.37;1.15;;;;;;;41.35;6.12;99163.94;1679298;85;21530;-70
2022/05/11 09:51:50;;;;;;;2.45;0.90;;;;;;;41.09;6.54;99164.19;1679475;85;21155;-72
2022/05/11 09:54:32;;;;;;;1.00;0.90;;;;;;;41.26;6.48;99168.38;1679256;85;20897;-68
2022/05/11 09:57:07;;;;;;;1.12;0.90;;;;;;;41.20;6.41;99166.52;1679286;85;21043;-70
2022/05/11 09:59:40;;;;;;;1.37;0.90;;;;;;;41.10;6.63;99160.81;1677975;85;20984;-69
2022/05/11 10:02:21;;;;;;;2.75;1.20;;;;;;;41.10;6.72;99160.81;1679766;85;21270;-71
2022/05/11 10:04:57;;;;;;;3.27;1.37;;;;;;;40.65;6.56;99163.19;1679294;85;21229;-69
2022/05/11 10:07:24;;;;;;;;;;;;;;;38.84;7.50;99161.88;1681902;85;20896;-67
2022/05/11 10:09:55;;;;;;;3.37;1.12;;;;;;;37.25;8.62;99163.96;1679500;85;20445;-71
2022/05/11 10:12:27;;;;;;;1.45;0.90;;;;;;;36.36;8.81;99160.45;1684228;85;20941;-71
2022/05/11 10:23:29;;;;;;;3.58;1.02;;;;;;;32.80;10.89;99167.83;1684749;85;20991;-69
2022/05/11 10:26:04;;;;;;;0.93;0.90;;;;;;;31.95;11.36;99169.77;1684732;85;20981;-67
2022/05/11 10:29:16;;;;;;;2.20;1.10;;;;;;;31.27;11.71;99162.48;1683982;85;20999;-70
2022/05/11 10:31:50;;;;;;;1.15;0.95;;;;;;;30.78;12.19;99169.69;1640832;85;21236;-69
2022/05/11 10:34:32;;;;;;;1.40;0.90;;;;;;;30.32;12.42;99157.48;1680472;85;21432;-69
2022/05/11 10:37:05;;;;;;;1.20;0.85;;;;;;;29.98;12.69;99157.67;1684679;85;21010;-68
2022/05/11 10:39:46;;;;;;;1.22;1.00;;;;;;;29.61;12.84;99159.99;1684758;85;20964;-70
2022/05/11 10:42:27;;;;;;;4.45;1.02;;;;;;;29.25;12.80;99153.75;1684723;85;21470;-70
2022/05/11 10:45:21;;;;;;;1.82;1.00;;;;;;;28.79;13.16;99151.47;1684871;85;21265;-68
2022/05/11 10:48:17;;;;;;;1.70;0.90;;;;;;;28.34;13.52;99146.05;1684706;85;21447;-70
2022/05/11 10:51:17;;;;;;;3.10;1.42;;;;;;;28.03;14.11;99147.00;1684867;85;20972;-72
2022/05/11 10:54:07;;;;;;;1.20;0.90;;;;;;;27.82;14.34;99140.10;1684701;85;21447;-69
2022/05/11 10:56:42;;;;;;;1.70;1.17;;;;;;;27.71;14.30;99139.97;1684644;85;20944;-71
2022/05/11 10:59:43;;;;;;;3.10;1.00;;;;;;;27.65;14.36;99123.91;1684821;85;22091;-68
2022/05/11 11:03:06;;;;;;;4.45;1.12;;;;;;;27.58;14.56;99133.01;1684665;85;21133;-68
2022/05/11 11:09:06;;;;;;;4.70;1.05;;;;;;;27.32;14.78;99129.11;1684645;85;20960;-70
2022/05/11 11:11:55;;;;;;;4.05;1.22;;;;;;;27.20;15.09;99125.14;1678831;85;20968;-67
2022/05/11 11:14:26;;;;;;;3.75;1.20;;;;;;;27.15;15.27;99125.18;1670981;85;21169;-68
2022/05/11 11:16:53;;;;;;;2.55;1.00;;;;;;;27.06;14.81;99116.81;1670968;86;21003;-67
2022/05/11 11:19:19;;;;;;;3.37;1.12;;;;;;;26.96;14.61;99116.33;1670940;85;20987;-67
2022/05/11 11:21:46;;;;;;;2.25;0.93;;;;;;;26.87;14.87;99111.23;1670916;85;20996;-71
2022/05/11 11:24:23;;;;;;;1.32;0.88;;;;;;;26.82;15.04;99111.27;1670914;85;20908;-71
2022/05/11 11:27:01;;;;;;;1.92;1.15;;;;;;;26.66;14.98;99107.53;1670984;86;21139;-68
2022/05/11 11:29:39;;;;;;;1.45;1.20;;;;;;;26.50;15.00;99098.64;1670924;86;20944;-69
2022/05/11 11:32:11;;;;;;;2.75;1.05;;;;;;;26.46;15.27;99094.04;1670975;86;20948;-69
2022/05/11 11:34:41;;;;;;;1.22;1.12;;;;;;;26.43;15.34;99083.69;1670949;85;21481;-71
2022/05/11 11:37:41;;;;;;;3.80;1.80;;;;;;;26.44;15.43;99078.52;1670995;85;20873;-69
2022/05/11 11:40:21;;;;;;;1.98;1.10;;;;;;;26.46;15.81;99074.41;1670940;86;21167;-68
2022/05/11 11:42:48;;;;;;;1.60;0.98;;;;;;;26.47;15.33;99077.38;1670822;85;21001;-69
2022/05/11 11:45:30;;;;;;;1.55;1.02;;;;;;;26.50;15.54;99074.09;1671012;86;21093;-66
2022/05/11 11:48:18;;;;;;;3.60;1.10;;;;;;;26.60;15.43;99073.20;1671113;86;20968;-68
2022/05/11 11:50:54;;;;;;;1.32;0.95;;;;;;;26.62;15.18;99061.47;1684768;84;20929;-71
2022/05/11 11:53:52;;;;;;;1.82;1.07;;;;;;;26.67;15.17;99063.59;1702179;84;21142;-69
2022/05/11 11:56:32;;;;;;;5.58;1.40;;;;;;;26.68;15.09;99062.50;1701998;84;20913;-66
2022/05/11 11:59:06;;;;;;;1.87;0.98;;;;;;;26.67;15.32;99066.31;1702035;84;20968;-67
2022/05/11 12:01:36;;;;;;;1.60;0.93;;;;;;;26.68;15.01;99060.31;1702077;84;20984;-70
2022/05/11 12:04:14;;;;;;;3.42;1.00;;;;;;;26.65;15.24;99066.34;1699303;84;21535;-69
2022/05/11 12:15:25;;;;;;;2.77;1.05;;;;;;;26.65;15.98;99056.25;1702188;84;20970;-67
2022/05/11 12:17:51;;;;;;;3.52;1.12;;;;;;;26.70;15.56;99054.84;1701958;84;20988;-68
2022/05/11 12:20:19;;;;;;;2.10;0.90;;;;;;;26.66;15.33;99055.16;1702012;84;21102;-69
2022/05/11 12:22:55;;;;;;;0.90;0.80;;;;;;;26.62;15.68;99058.17;1701842;84;20882;-68
2022/05/11 12:25:33;;;;;;;2.70;1.30;;;;;;;26.61;15.74;99051.11;1702154;84;20928;-68
2022/05/11 12:28:02;;;;;;;2.60;1.10;;;;;;;26.59;15.67;99059.31;1702277;84;21012;-68
2022/05/11 12:30:34;;;;;;;3.00;1.07;;;;;;;26.55;15.77;99056.87;1702040;84;20917;-68
2022/05/11 12:33:04;;;;;;;10.85;1.82;;;;;;;26.43;15.71;99055.05;1676276;84;21133;-69
2022/05/11 12:35:37;;;;;;;2.85;1.15;;;;;;;26.36;16.14;99052.09;1670856;86;21509;-67
2022/05/11 12:38:11;;;;;;;6.12;1.35;;;;;;;26.34;16.40;99044.75;1670581;86;21426;-68
2022/05/11 12:40:48;;;;;;;3.00;1.20;;;;;;;26.31;16.29;99048.58;1669853;86;20898;-68
2022/05/11 12:43:35;;;;;;;5.95;1.25;;;;;;;26.29;16.09;99041.23;1670769;86;20875;-67
2022/05/11 12:46:13;;;;;;;7.50;1.27;;;;;;;26.26;16.55;99043.16;1670514;86;21242;-67